createdAt,value
2023-02-07T00:00:27.192Z,2.08
2023-02-07T00:02:57.898Z,2.00
2023-02-07T00:05:25.449Z,2.03
2023-02-07T00:07:58.166Z,1.80
2023-02-07T00:10:30.623Z,2.00
2023-02-07T00:13:10.679Z,1.63
2023-02-07T00:15:39.546Z,1.90
2023-02-07T00:18:11.554Z,1.98
2023-02-07T00:20:45.963Z,1.85
2023-02-07T00:23:18.048Z,2.13
2023-02-07T00:25:49.389Z,1.60
2023-02-07T00:28:17.913Z,1.90
2023-02-07T00:30:48.550Z,2.03
2023-02-07T00:33:16.345Z,1.60
2023-02-07T00:35:44.010Z,1.95
2023-02-07T00:38:12.129Z,1.60
2023-02-07T00:40:42.377Z,1.73
2023-02-07T00:43:18.855Z,2.30
2023-02-07T00:46:05.318Z,2.20
2023-02-07T00:48:39.545Z,2.08
2023-02-07T00:51:10.328Z,1.90
2023-02-07T00:53:48.252Z,1.83
2023-02-07T00:56:26.340Z,2.13
2023-02-07T00:59:11.499Z,1.92
2023-02-07T01:01:41.994Z,1.80
2023-02-07T01:04:17.589Z,1.65
2023-02-07T01:06:47.335Z,2.13
2023-02-07T01:09:27.820Z,1.45
2023-02-07T01:12:00.939Z,1.80
2023-02-07T01:14:32.522Z,2.10
2023-02-07T01:22:16.804Z,1.88
2023-02-07T01:24:45.294Z,2.13
2023-02-07T01:27:15.834Z,1.95
2023-02-07T01:29:47.167Z,2.10
2023-02-07T01:32:19.333Z,2.05
2023-02-07T01:34:47.337Z,2.80
2023-02-07T01:37:14.752Z,2.42
2023-02-07T01:39:57.343Z,2.47
2023-02-07T01:42:39.478Z,2.45
2023-02-07T01:45:30.727Z,2.67
2023-02-07T01:48:03.099Z,2.33
2023-02-07T01:50:36.857Z,2.80
2023-02-07T01:53:06.977Z,3.03
2023-02-07T01:55:38.785Z,3.25
2023-02-07T01:58:12.156Z,2.50
2023-02-07T02:00:57.596Z,2.78
2023-02-07T02:03:40.171Z,2.55
2023-02-07T02:06:16.332Z,2.83
2023-02-07T02:08:53.314Z,3.03
2023-02-07T02:12:01.904Z,2.72
2023-02-07T02:15:10.641Z,3.00
2023-02-07T02:17:50.005Z,3.42
2023-02-07T02:20:41.508Z,2.65
2023-02-07T02:23:22.304Z,3.25
2023-02-07T02:26:15.909Z,2.92
2023-02-07T02:29:20.793Z,3.55
2023-02-07T02:32:00.796Z,3.00
2023-02-07T02:35:02.562Z,3.00
2023-02-07T02:37:53.350Z,3.25
2023-02-07T02:40:41.342Z,2.75
2023-02-07T02:43:23.013Z,3.15
2023-02-07T02:45:57.310Z,3.13
2023-02-07T02:48:37.077Z,2.95
2023-02-07T02:51:06.991Z,2.97
2023-02-07T02:53:34.158Z,2.63
2023-02-07T02:56:23.464Z,3.03
2023-02-07T02:59:32.148Z,3.00
2023-02-07T03:02:32.552Z,3.00
2023-02-07T03:05:40.485Z,2.83
2023-02-07T03:08:29.317Z,2.90
2023-02-07T03:11:08.143Z,2.88
2023-02-07T03:14:13.010Z,2.92
2023-02-07T03:17:14.365Z,2.80
2023-02-07T03:19:53.972Z,2.55
2023-02-07T03:22:34.134Z,2.90
2023-02-07T03:25:07.103Z,2.72
2023-02-07T03:30:11.720Z,3.20
2023-02-07T03:32:44.546Z,2.78
2023-02-07T03:35:36.875Z,3.37
2023-02-07T03:38:07.808Z,2.95
2023-02-07T03:40:47.454Z,2.55
2023-02-07T03:43:26.682Z,3.20
2023-02-07T03:45:56.813Z,2.45
2023-02-07T03:48:25.074Z,3.00
2023-02-07T03:50:53.280Z,2.80
2023-02-07T03:53:25.082Z,2.92
2023-02-07T03:56:00.099Z,2.70
2023-02-07T03:58:27.508Z,3.15
2023-02-07T04:00:54.981Z,2.90
2023-02-07T04:03:25.939Z,3.10
2023-02-07T04:05:58.543Z,3.00
2023-02-07T04:08:31.712Z,3.35
2023-02-07T04:11:08.085Z,2.67
2023-02-07T04:13:44.377Z,2.70
2023-02-07T04:16:11.879Z,2.92
2023-02-07T04:18:43.412Z,2.75
2023-02-07T04:21:13.825Z,3.10
2023-02-07T04:23:48.301Z,3.42
2023-02-07T04:26:15.594Z,2.78
2023-02-07T04:28:43.095Z,3.00
2023-02-07T04:31:13.230Z,3.45
2023-02-07T04:33:49.431Z,3.08
2023-02-07T04:36:23.293Z,3.28
2023-02-07T04:38:58.179Z,2.80
2023-02-07T04:41:31.752Z,3.50
2023-02-07T04:46:30.476Z,3.03
2023-02-07T04:49:06.242Z,3.55
2023-02-07T04:51:37.958Z,3.30
2023-02-07T04:54:13.186Z,3.58
2023-02-07T04:56:40.524Z,3.17
2023-02-07T05:01:52.229Z,2.90
2023-02-07T05:04:19.646Z,3.55
2023-02-07T05:06:46.856Z,3.53
2023-02-07T05:09:14.630Z,2.95
2023-02-07T05:11:41.868Z,3.10
2023-02-07T05:14:09.221Z,3.50
2023-02-07T05:16:36.601Z,3.13
2023-02-07T05:19:05.076Z,3.05
2023-02-07T05:21:32.517Z,2.78
2023-02-07T05:23:59.992Z,3.30
2023-02-07T05:26:27.168Z,3.17
2023-02-07T05:28:54.589Z,3.63
2023-02-07T05:31:42.363Z,3.63
2023-02-07T05:34:09.796Z,3.75
2023-02-07T05:36:37.123Z,3.20
2023-02-07T05:39:07.630Z,3.72
2023-02-07T05:41:35.105Z,3.30
2023-02-07T05:44:02.398Z,3.72
2023-02-07T05:46:29.592Z,3.72
2023-02-07T05:48:56.833Z,3.70
2023-02-07T05:51:24.225Z,3.25
2023-02-07T05:53:51.667Z,3.38
2023-02-07T05:56:18.900Z,3.65
2023-02-07T05:58:46.130Z,3.38
2023-02-07T06:01:13.416Z,3.30
2023-02-07T06:03:40.660Z,4.07
2023-02-07T06:06:07.989Z,3.90
2023-02-07T06:08:35.295Z,4.03
2023-02-07T06:11:02.542Z,3.92
2023-02-07T06:13:32.466Z,3.75
2023-02-07T06:16:01.559Z,3.60
2023-02-07T06:18:28.676Z,4.38
2023-02-07T06:20:56.090Z,3.10
2023-02-07T06:23:24.457Z,3.38
2023-02-07T06:25:51.630Z,3.97
2023-02-07T06:28:21.377Z,3.55
2023-02-07T06:30:50.618Z,3.50
2023-02-07T06:33:17.959Z,4.78
2023-02-07T06:35:47.655Z,3.75
2023-02-07T06:38:16.044Z,4.25
2023-02-07T06:40:44.376Z,3.22
2023-02-07T06:43:12.500Z,3.70
2023-02-07T06:45:39.934Z,3.05
2023-02-07T06:48:08.173Z,3.63
2023-02-07T06:50:35.537Z,4.00
2023-02-07T06:53:02.874Z,3.00
2023-02-07T06:55:32.173Z,2.70
2023-02-07T06:57:59.506Z,3.40
2023-02-07T07:00:26.662Z,3.17
2023-02-07T07:03:00.357Z,3.03
2023-02-07T07:05:29.977Z,2.50
2023-02-07T07:07:57.756Z,3.10
2023-02-07T07:10:25.491Z,3.53
2023-02-07T07:12:52.763Z,2.80
2023-02-07T07:15:19.965Z,2.83
2023-02-07T07:17:47.131Z,2.30
2023-02-07T07:20:14.414Z,3.45
2023-02-07T07:22:42.273Z,2.20
2023-02-07T07:25:10.154Z,2.95
2023-02-07T07:27:37.405Z,2.60
2023-02-07T07:30:05.427Z,2.95
2023-02-07T07:32:39.024Z,3.13
2023-02-07T07:35:11.669Z,2.30
2023-02-07T07:37:41.781Z,2.58
2023-02-07T07:40:13.334Z,2.75
2023-02-07T07:42:44.356Z,3.53
2023-02-07T07:45:24.282Z,2.45
2023-02-07T07:47:54.510Z,2.92
2023-02-07T07:50:27.041Z,3.33
2023-02-07T07:52:59.279Z,2.72
2023-02-07T07:55:34.063Z,2.90
2023-02-07T07:58:12.777Z,2.30
2023-02-07T08:00:41.201Z,2.83
2023-02-07T08:03:13.792Z,3.15
2023-02-07T08:06:00.350Z,2.90
2023-02-07T08:08:33.174Z,2.67
2023-02-07T08:11:12.853Z,2.08
2023-02-07T08:13:43.041Z,2.83
2023-02-07T08:16:11.558Z,2.67
2023-02-07T08:18:38.940Z,2.60
2023-02-07T08:21:09.731Z,2.65
2023-02-07T08:23:41.065Z,3.00
2023-02-07T08:26:13.670Z,3.13
2023-02-07T08:28:48.145Z,3.03
2023-02-07T08:31:30.671Z,2.50
2023-02-07T08:33:58.509Z,2.60
2023-02-07T08:36:40.948Z,2.72
2023-02-07T08:39:08.908Z,2.47
2023-02-07T08:41:40.101Z,2.17
2023-02-07T08:44:09.960Z,2.28
2023-02-07T08:46:40.856Z,2.40
2023-02-07T08:49:10.610Z,2.78
2023-02-07T08:51:38.609Z,2.25
2023-02-07T08:54:09.657Z,2.72
2023-02-07T08:56:49.235Z,2.53
2023-02-07T08:59:16.973Z,2.60
2023-02-07T09:01:51.286Z,3.70
2023-02-07T09:04:29.314Z,2.78
2023-02-07T09:07:07.707Z,2.20
2023-02-07T09:09:50.131Z,3.95
2023-02-07T09:12:28.953Z,3.33
2023-02-07T09:15:03.704Z,1.98
2023-02-07T09:20:26.740Z,2.13
2023-02-07T09:23:20.442Z,2.90
2023-02-07T09:26:07.138Z,2.10
2023-02-07T09:28:44.185Z,2.45
2023-02-07T09:31:25.027Z,2.55
2023-02-07T09:34:00.675Z,2.60
2023-02-07T09:36:36.295Z,2.42
2023-02-07T09:39:12.738Z,2.10
2023-02-07T09:42:30.182Z,3.13
2023-02-07T09:45:13.152Z,2.40
2023-02-07T09:48:05.049Z,2.28
2023-02-07T09:51:04.586Z,2.22
2023-02-07T09:54:03.406Z,2.40
2023-02-07T09:56:44.882Z,2.40
2023-02-07T09:59:45.748Z,2.10
2023-02-07T10:02:46.355Z,1.95
2023-02-07T10:05:34.618Z,1.92
2023-02-07T10:08:43.716Z,1.88
2023-02-07T10:11:31.453Z,1.98
2023-02-07T10:14:19.951Z,1.52
2023-02-07T10:17:22.222Z,1.23
2023-02-07T10:20:39.855Z,1.70
2023-02-07T10:23:44.235Z,1.60
2023-02-07T10:26:59.817Z,1.30
2023-02-07T10:30:30.002Z,1.42
2023-02-07T10:33:34.877Z,1.40
2023-02-07T10:36:25.059Z,1.40
2023-02-07T10:39:22.419Z,1.92
2023-02-07T10:42:14.995Z,1.40
2023-02-07T10:44:58.984Z,1.15
2023-02-07T10:50:45.858Z,1.25
2023-02-07T10:54:06.105Z,1.10
2023-02-07T10:57:02.161Z,1.00
2023-02-07T11:00:03.073Z,0.90
2023-02-07T11:02:40.828Z,0.70
2023-02-07T11:05:35.583Z,0.80
2023-02-07T11:08:38.905Z,1.08
2023-02-07T11:11:39.451Z,0.60
2023-02-07T11:14:13.704Z,0.93
2023-02-07T11:16:48.263Z,0.95
2023-02-07T11:19:20.857Z,0.80
2023-02-07T11:21:50.898Z,0.75
2023-02-07T11:24:32.280Z,0.65
2023-02-07T11:27:18.812Z,0.60
2023-02-07T11:29:54.557Z,0.70
2023-02-07T11:32:24.656Z,0.57
2023-02-07T11:34:58.816Z,0.40
2023-02-07T11:37:34.306Z,0.68
2023-02-07T11:40:27.723Z,0.70
2023-02-07T11:43:03.884Z,0.90
2023-02-07T11:45:37.398Z,0.70
2023-02-07T11:48:06.611Z,0.50
2023-02-07T11:50:40.074Z,0.80
2023-02-07T11:53:16.875Z,0.75
2023-02-07T11:55:44.538Z,1.25
2023-02-07T11:58:21.553Z,0.65
2023-02-07T12:00:49.664Z,0.73
2023-02-07T12:03:24.810Z,0.90
2023-02-07T12:05:56.152Z,0.82
2023-02-07T12:08:30.246Z,0.80
2023-02-07T12:11:04.080Z,1.23
2023-02-07T12:13:49.763Z,0.93
2023-02-07T12:16:32.467Z,0.90
2023-02-07T12:19:22.924Z,1.00
2023-02-07T12:22:27.742Z,0.88
2023-02-07T12:25:23.423Z,2.00
2023-02-07T12:28:01.310Z,1.70
2023-02-07T12:30:50.667Z,2.00
2023-02-07T12:33:24.647Z,3.13
2023-02-07T12:36:20.062Z,2.08
2023-02-07T12:38:58.675Z,1.88
2023-02-07T12:41:46.293Z,1.38
2023-02-07T12:44:33.839Z,1.10
2023-02-07T12:47:14.834Z,1.70
2023-02-07T12:50:16.307Z,1.58
2023-02-07T12:53:16.281Z,1.83
2023-02-07T12:56:00.857Z,1.75
2023-02-07T12:58:59.162Z,2.08
2023-02-07T13:02:04.465Z,1.70
2023-02-07T13:04:35.178Z,2.30
2023-02-07T13:07:37.502Z,3.50
2023-02-07T13:10:35.184Z,2.47
2023-02-07T13:14:17.652Z,2.83
2023-02-07T13:17:20.354Z,2.22
2023-02-07T13:20:33.208Z,2.35
2023-02-07T13:23:41.313Z,3.05
2023-02-07T13:26:37.927Z,3.40
2023-02-07T13:29:18.205Z,3.67
2023-02-07T13:32:03.464Z,3.55
2023-02-07T13:38:28.446Z,2.58
2023-02-07T13:41:17.896Z,2.25
2023-02-07T13:44:22.162Z,2.60
2023-02-07T13:50:06.751Z,2.60
2023-02-07T13:52:56.732Z,3.17
2023-02-07T13:55:54.251Z,2.22
2023-02-07T13:58:59.112Z,2.20
2023-02-07T14:01:48.028Z,3.13
2023-02-07T14:04:34.434Z,2.63
2023-02-07T14:07:27.012Z,3.80
2023-02-07T14:10:08.099Z,3.00
2023-02-07T14:12:55.133Z,2.85
2023-02-07T14:15:31.513Z,2.35
2023-02-07T14:18:06.144Z,3.35
2023-02-07T14:20:39.724Z,2.83
2023-02-07T14:23:10.077Z,2.85
2023-02-07T14:25:44.486Z,4.03
2023-02-07T14:28:20.542Z,2.72
2023-02-07T14:30:58.726Z,2.58
2023-02-07T14:33:38.621Z,2.67
2023-02-07T14:36:14.906Z,3.05
2023-02-07T14:39:17.730Z,2.13
2023-02-07T14:41:47.134Z,2.05
2023-02-07T14:44:33.335Z,2.58
2023-02-07T14:47:05.499Z,2.45
2023-02-07T14:49:44.686Z,3.53
2023-02-07T14:52:24.343Z,3.13
2023-02-07T14:55:06.172Z,2.22
2023-02-07T14:57:58.031Z,2.70
2023-02-07T15:00:49.101Z,3.17
2023-02-07T15:03:19.588Z,3.70
2023-02-07T15:05:56.610Z,2.55
2023-02-07T15:08:26.812Z,2.80
2023-02-07T15:11:26.610Z,1.95
2023-02-07T15:14:02.467Z,1.60
2023-02-07T15:16:34.110Z,2.75
2023-02-07T15:19:12.828Z,2.50
2023-02-07T15:21:42.513Z,2.55
2023-02-07T15:24:20.095Z,2.90
2023-02-07T15:26:59.469Z,3.78
2023-02-07T15:29:40.546Z,3.60
2023-02-07T15:32:28.166Z,2.28
2023-02-07T15:35:29.662Z,3.28
2023-02-07T15:38:17.887Z,3.72
2023-02-07T15:40:45.344Z,3.03
2023-02-07T15:43:26.509Z,3.60
2023-02-07T15:46:10.886Z,3.55
2023-02-07T15:49:00.867Z,3.47
2023-02-07T15:51:34.462Z,3.13
2023-02-07T15:54:06.293Z,2.20
2023-02-07T15:56:40.131Z,2.42
2023-02-07T15:59:18.097Z,1.88
2023-02-07T16:01:55.376Z,2.20
2023-02-07T16:04:37.526Z,2.05
2023-02-07T16:10:24.789Z,2.25
2023-02-07T16:13:23.092Z,2.50
2023-02-07T16:16:09.140Z,3.08
2023-02-07T16:18:48.885Z,3.17
2023-02-07T16:21:23.497Z,3.65
2023-02-07T16:24:10.315Z,3.10
2023-02-07T16:26:40.542Z,2.83
2023-02-07T16:29:27.145Z,3.95
2023-02-07T16:31:57.953Z,5.03
2023-02-07T16:34:29.681Z,4.28
2023-02-07T16:36:58.702Z,4.40
2023-02-07T16:39:27.235Z,5.20
2023-02-07T16:42:08.739Z,4.40
2023-02-07T16:44:38.439Z,3.88
2023-02-07T16:47:10.477Z,4.47
2023-02-07T16:49:38.652Z,4.15
2023-02-07T16:52:08.308Z,3.63
2023-02-07T16:54:39.819Z,4.18
2023-02-07T16:57:08.110Z,4.78
2023-02-07T16:59:37.506Z,4.10
2023-02-07T17:02:14.846Z,5.03
2023-02-07T17:04:44.742Z,5.05
2023-02-07T17:07:16.984Z,4.55
2023-02-07T17:09:50.186Z,4.20
2023-02-07T17:12:22.579Z,4.05
2023-02-07T17:14:54.051Z,4.35
2023-02-07T17:17:26.703Z,4.03
2023-02-07T17:19:55.251Z,4.20
2023-02-07T17:22:22.730Z,3.80
2023-02-07T17:24:54.284Z,4.15
2023-02-07T17:27:24.994Z,4.00
2023-02-07T17:33:18.389Z,4.38
2023-02-07T17:35:47.027Z,3.30
2023-02-07T17:38:16.102Z,4.47
2023-02-07T17:40:48.234Z,3.55
2023-02-07T17:43:17.379Z,2.92
2023-02-07T17:45:49.511Z,3.85
2023-02-07T17:48:24.574Z,2.97
2023-02-07T17:50:56.933Z,3.03
2023-02-07T17:53:24.788Z,4.25
2023-02-07T17:55:53.167Z,3.58
2023-02-07T17:58:23.187Z,3.15
2023-02-07T18:00:52.084Z,3.05
2023-02-07T18:03:20.894Z,3.22
2023-02-07T18:05:51.757Z,2.88
2023-02-07T18:08:20.162Z,3.08
2023-02-07T18:10:48.949Z,2.85
2023-02-07T18:13:17.894Z,3.17
2023-02-07T18:15:52.935Z,3.25
2023-02-07T18:18:24.435Z,3.72
2023-02-07T18:20:55.288Z,3.78
2023-02-07T18:23:22.570Z,4.50
2023-02-07T18:25:52.738Z,4.00
2023-02-07T18:28:21.073Z,4.07
2023-02-07T18:30:49.017Z,3.75
2023-02-07T18:33:28.935Z,3.85
2023-02-07T18:36:12.872Z,3.78
2023-02-07T18:41:22.613Z,3.40
2023-02-07T18:43:55.622Z,3.10
2023-02-07T18:46:30.106Z,3.53
2023-02-07T18:49:16.756Z,4.22
2023-02-07T18:51:58.292Z,3.33
2023-02-07T18:54:32.482Z,3.70
2023-02-07T18:57:16.175Z,3.25
2023-02-07T18:59:44.947Z,3.75
2023-02-07T19:02:17.111Z,3.67
2023-02-07T19:04:50.967Z,4.18
2023-02-07T19:07:39.988Z,4.65
2023-02-07T19:10:14.445Z,3.88
2023-02-07T19:12:48.976Z,3.78
2023-02-07T19:15:34.637Z,2.92
2023-02-07T19:21:16.533Z,3.20
2023-02-07T19:23:59.498Z,3.58
2023-02-07T19:26:41.147Z,2.70
2023-02-07T19:29:23.500Z,3.55
2023-02-07T19:31:58.070Z,3.50
2023-02-07T19:34:48.109Z,3.22
2023-02-07T19:37:19.924Z,3.33
2023-02-07T19:40:02.431Z,3.35
2023-02-07T19:42:40.595Z,3.20
2023-02-07T19:45:41.179Z,3.35
2023-02-07T19:48:16.430Z,4.18
2023-02-07T19:50:50.601Z,4.53
2023-02-07T19:53:30.164Z,4.47
2023-02-07T19:56:23.851Z,5.20
2023-02-07T20:12:30.146Z,6.95
2023-02-07T20:15:03.062Z,4.93
2023-02-07T20:17:33.472Z,5.03
2023-02-07T20:20:40.407Z,5.85
2023-02-07T20:23:12.750Z,4.32
2023-02-07T20:25:51.864Z,6.20
2023-02-07T20:28:37.221Z,5.10
2023-02-07T20:31:32.148Z,4.72
2023-02-07T20:34:03.222Z,6.35
2023-02-07T20:36:32.355Z,5.22
2023-02-07T20:39:03.796Z,4.88
2023-02-07T20:41:39.708Z,5.22
2023-02-07T20:44:12.553Z,5.60
2023-02-07T20:46:41.187Z,5.20
2023-02-07T20:49:12.371Z,5.43
2023-02-07T20:51:42.764Z,4.82
2023-02-07T20:54:13.773Z,4.78
2023-02-07T20:56:42.745Z,5.00
2023-02-07T20:59:19.269Z,4.90
2023-02-07T21:01:47.489Z,4.05
2023-02-07T21:04:16.563Z,5.20
2023-02-07T21:06:47.791Z,3.38
2023-02-07T21:09:18.485Z,4.13
2023-02-07T21:11:51.851Z,5.05
2023-02-07T21:14:27.942Z,4.00
2023-02-07T21:16:57.709Z,5.22
2023-02-07T21:19:25.943Z,4.72
2023-02-07T21:21:55.291Z,4.88
2023-02-07T21:24:23.486Z,4.95
2023-02-07T21:26:55.814Z,4.35
2023-02-07T21:29:23.934Z,4.72
2023-02-07T21:31:52.636Z,4.72
2023-02-07T21:34:22.462Z,3.58
2023-02-07T21:36:50.822Z,4.68
2023-02-07T21:39:19.093Z,3.80
2023-02-07T21:41:48.064Z,4.63
2023-02-07T21:44:16.413Z,4.47
2023-02-07T21:46:46.393Z,5.45
2023-02-07T21:49:17.095Z,3.92
2023-02-07T21:51:46.720Z,4.20
2023-02-07T21:54:17.778Z,3.78
2023-02-07T21:56:45.844Z,3.42
2023-02-07T21:59:16.215Z,4.80
2023-02-07T22:01:44.874Z,4.30
2023-02-07T22:04:13.385Z,4.28
2023-02-07T22:06:44.143Z,4.13
2023-02-07T22:09:14.272Z,3.50
2023-02-07T22:11:47.214Z,3.95
2023-02-07T22:14:16.308Z,3.53
2023-02-07T22:16:44.123Z,3.72
2023-02-07T22:19:13.605Z,5.22
2023-02-07T22:21:46.951Z,3.83
2023-02-07T22:24:21.470Z,4.50
2023-02-07T22:26:55.056Z,4.95
2023-02-07T22:31:53.474Z,4.53
2023-02-07T22:34:35.724Z,3.95
2023-02-07T22:37:03.053Z,4.57
2023-02-07T22:39:30.582Z,4.18
2023-02-07T22:42:00.710Z,3.70
2023-02-07T22:44:31.437Z,3.95
2023-02-07T22:47:00.982Z,4.50
2023-02-07T22:49:28.424Z,4.60
2023-02-07T22:52:07.463Z,3.67
2023-02-07T22:54:41.323Z,4.10
2023-02-07T22:57:15.819Z,4.32
2023-02-07T22:59:48.509Z,4.70
2023-02-07T23:02:18.978Z,4.13
2023-02-07T23:04:46.363Z,5.28
2023-02-07T23:07:15.519Z,4.40
2023-02-07T23:09:46.368Z,5.95
2023-02-07T23:12:22.724Z,4.63
2023-02-07T23:14:50.190Z,4.47
2023-02-07T23:17:26.761Z,4.45
2023-02-07T23:22:28.748Z,3.67
2023-02-07T23:24:57.609Z,3.83
2023-02-07T23:27:29.606Z,3.17
2023-02-07T23:29:59.431Z,3.75
2023-02-07T23:32:30.143Z,4.07
2023-02-07T23:35:04.491Z,3.50
2023-02-07T23:37:40.843Z,3.63
2023-02-07T23:40:40.633Z,3.40
2023-02-07T23:43:12.492Z,3.53
2023-02-07T23:45:40.204Z,4.13
2023-02-07T23:48:12.954Z,2.90
2023-02-07T23:50:41.124Z,3.30
2023-02-07T23:53:10.157Z,3.38
2023-02-07T23:55:42.679Z,2.88
2023-02-07T23:58:10.468Z,3.05
